Sea Venture — WDF5080 — position and weather

sailwx.info

Track history (hours):
 
Tides and Currents Weather Stations Pressure Air Temp Water Temp Dewpoint Dewpoint Depression Visibility Wind Speed Wind Dir Waves Ship Positions

Sea Venture

Owner: Great Western Marine Yachts LLC, Seattle, WA. More information available from US FCC via Universal Licensing System and Coast Guard Vessel Documentation Center.

Last reported at 2017-Feb-22 23:04 UTC. Time now 2017-Feb-24 00:06 UTC.
Position N 26°08' W 080°07'.

Length 33 m.

MMSI: 338103225.

Date/timePositionNaut miles runAvg speedWind from/ knotsBaromVisibWave heightAir tempDewpointWater temp
2017-Feb-22 23:04N 26°08' W 080°07'0 0.0
2017-Feb-22 22:33N 26°08' W 080°07'0 0.0
2017-Feb-22 21:33N 26°08' W 080°07'2 2.3
2017-Feb-22 20:33N 26°06' W 080°07'1313.2
2017-Feb-22 19:33N 25°52' W 080°06'7 6.8
2017-Feb-22 18:33N 25°47' W 080°11'6 5.8
2017-Feb-22 17:33N 25°53' W 080°09'3 2.6
2017-Feb-22 16:34N 25°50' W 080°07'1 0.9
2017-Feb-22 15:33N 25°50' W 080°07'0 0.0
2017-Feb-22 14:33N 25°50' W 080°07'0 0.0
2017-Feb-22 13:33N 25°50' W 080°07'0 0.0
2017-Feb-22 12:33N 25°50' W 080°07'  
2017-Feb-19 15:07N 25°50' W 080°07'0 0.0
2017-Feb-19 14:33N 25°50' W 080°07'0 0.0
2017-Feb-19 13:33N 25°50' W 080°07'0 0.0
2017-Feb-19 12:33N 25°50' W 080°07'0 0.0
2017-Feb-19 11:33N 25°50' W 080°07'0 0.0
2017-Feb-19 10:33N 25°50' W 080°07'0 0.0
2017-Feb-19 09:33N 25°50' W 080°07'0 0.0
2017-Feb-19 08:33N 25°50' W 080°07'0 0.0
2017-Feb-19 07:33N 25°50' W 080°07'0 0.0
2017-Feb-19 06:33N 25°50' W 080°07'0 0.0
2017-Feb-19 05:33N 25°50' W 080°07'0 0.0
2017-Feb-19 04:33N 25°50' W 080°07'0 0.0
2017-Feb-19 03:33N 25°50' W 080°07'0 0.0
2017-Feb-19 02:33N 25°50' W 080°07'0 0.0
2017-Feb-19 01:33N 25°50' W 080°07'0 0.0
2017-Feb-19 00:33N 25°50' W 080°07'0 0.0
2017-Feb-18 23:33N 25°50' W 080°07'0 0.0
2017-Feb-18 22:33N 25°50' W 080°07'0 0.0
2017-Feb-18 21:33N 25°50' W 080°07'  
Track history (hours):
 
Tides and Currents Weather Stations Pressure Air Temp Water Temp Dewpoint Dewpoint Depression Visibility Wind Speed Wind Dir Waves Ship Positions

Sea Venture

Owner: Great Western Marine Yachts LLC, Seattle, WA. More information available from US FCC via Universal Licensing System and Coast Guard Vessel Documentation Center.

Last reported at 2017-Feb-22 23:04 UTC. Time now 2017-Feb-24 00:06 UTC.
Position N 26°08' W 080°07'.

Length 33 m.

MMSI: 338103225.

Date/timePositionNaut miles runAvg speedWind from/ knotsBaromVisibWave heightAir tempDewpointWater temp
2017-Feb-22 23:04N 26°08' W 080°07'0 0.0
2017-Feb-22 22:33N 26°08' W 080°07'0 0.0
2017-Feb-22 21:33N 26°08' W 080°07'2 2.3
2017-Feb-22 20:33N 26°06' W 080°07'1313.2
2017-Feb-22 19:33N 25°52' W 080°06'7 6.8
2017-Feb-22 18:33N 25°47' W 080°11'6 5.8
2017-Feb-22 17:33N 25°53' W 080°09'3 2.6
2017-Feb-22 16:34N 25°50' W 080°07'1 0.9
2017-Feb-22 15:33N 25°50' W 080°07'0 0.0
2017-Feb-22 14:33N 25°50' W 080°07'0 0.0
2017-Feb-22 13:33N 25°50' W 080°07'0 0.0
2017-Feb-22 12:33N 25°50' W 080°07'  
2017-Feb-19 15:07N 25°50' W 080°07'0 0.0
2017-Feb-19 14:33N 25°50' W 080°07'0 0.0
2017-Feb-19 13:33N 25°50' W 080°07'0 0.0
2017-Feb-19 12:33N 25°50' W 080°07'0 0.0
2017-Feb-19 11:33N 25°50' W 080°07'0 0.0
2017-Feb-19 10:33N 25°50' W 080°07'0 0.0
2017-Feb-19 09:33N 25°50' W 080°07'0 0.0
2017-Feb-19 08:33N 25°50' W 080°07'0 0.0
2017-Feb-19 07:33N 25°50' W 080°07'0 0.0
2017-Feb-19 06:33N 25°50' W 080°07'0 0.0
2017-Feb-19 05:33N 25°50' W 080°07'0 0.0
2017-Feb-19 04:33N 25°50' W 080°07'0 0.0
2017-Feb-19 03:33N 25°50' W 080°07'0 0.0
2017-Feb-19 02:33N 25°50' W 080°07'0 0.0
2017-Feb-19 01:33N 25°50' W 080°07'0 0.0
2017-Feb-19 00:33N 25°50' W 080°07'0 0.0
2017-Feb-18 23:33N 25°50' W 080°07'0 0.0
2017-Feb-18 22:33N 25°50' W 080°07'0 0.0
2017-Feb-18 21:33N 25°50' W 080°07'  

Dump ship's entire track history